sensor_id;sensor_type;location;lat;lon;timestamp;P1;durP1;ratioP1;P2;durP2;ratioP2
35540;SDS011;21650;48.840;9.162;2023-06-26T00:00:02;9.30;;;7.23;;
35540;SDS011;21650;48.840;9.162;2023-06-26T00:02:30;10.30;;;7.47;;
35540;SDS011;21650;48.840;9.162;2023-06-26T00:04:57;10.23;;;7.67;;
35540;SDS011;21650;48.840;9.162;2023-06-26T00:07:23;12.07;;;7.73;;
35540;SDS011;21650;48.840;9.162;2023-06-26T00:09:49;10.37;;;7.73;;
35540;SDS011;21650;48.840;9.162;2023-06-26T00:12:14;11.17;;;7.87;;
35540;SDS011;21650;48.840;9.162;2023-06-26T00:14:40;14.13;;;7.83;;
35540;SDS011;21650;48.840;9.162;2023-06-26T00:17:05;10.87;;;7.80;;
35540;SDS011;21650;48.840;9.162;2023-06-26T00:19:31;13.00;;;7.90;;
35540;SDS011;21650;48.840;9.162;2023-06-26T00:21:58;11.63;;;7.40;;
35540;SDS011;21650;48.840;9.162;2023-06-26T00:24:23;11.23;;;8.37;;
35540;SDS011;21650;48.840;9.162;2023-06-26T00:26:49;10.83;;;7.70;;
35540;SDS011;21650;48.840;9.162;2023-06-26T00:29:14;11.53;;;7.97;;
35540;SDS011;21650;48.840;9.162;2023-06-26T00:31:41;10.20;;;7.27;;
35540;SDS011;21650;48.840;9.162;2023-06-26T00:34:06;10.00;;;7.70;;
35540;SDS011;21650;48.840;9.162;2023-06-26T00:36:32;9.07;;;7.10;;
35540;SDS011;21650;48.840;9.162;2023-06-26T00:38:58;9.70;;;7.43;;
35540;SDS011;21650;48.840;9.162;2023-06-26T00:41:24;13.17;;;8.17;;
35540;SDS011;21650;48.840;9.162;2023-06-26T00:43:50;10.07;;;7.57;;
35540;SDS011;21650;48.840;9.162;2023-06-26T00:46:16;11.17;;;8.07;;
35540;SDS011;21650;48.840;9.162;2023-06-26T00:48:42;12.67;;;8.20;;
35540;SDS011;21650;48.840;9.162;2023-06-26T00:51:09;11.17;;;7.23;;
35540;SDS011;21650;48.840;9.162;2023-06-26T00:53:35;10.07;;;7.43;;
35540;SDS011;21650;48.840;9.162;2023-06-26T00:56:02;15.53;;;8.23;;
35540;SDS011;21650;48.840;9.162;2023-06-26T00:58:28;10.70;;;7.23;;
35540;SDS011;21650;48.840;9.162;2023-06-26T01:00:54;10.33;;;7.80;;
35540;SDS011;21650;48.840;9.162;2023-06-26T01:03:20;13.03;;;8.37;;
35540;SDS011;21650;48.840;9.162;2023-06-26T01:05:50;11.40;;;7.67;;
35540;SDS011;21650;48.840;9.162;2023-06-26T01:08:17;10.03;;;7.10;;
35540;SDS011;21650;48.840;9.162;2023-06-26T01:10:44;9.63;;;7.10;;
35540;SDS011;21650;48.840;9.162;2023-06-26T01:13:14;10.93;;;8.27;;
35540;SDS011;21650;48.840;9.162;2023-06-26T01:15:40;15.13;;;8.40;;
35540;SDS011;21650;48.840;9.162;2023-06-26T01:18:06;10.47;;;8.37;;
35540;SDS011;21650;48.840;9.162;2023-06-26T01:20:32;10.93;;;8.03;;
35540;SDS011;21650;48.840;9.162;2023-06-26T01:23:04;12.03;;;8.50;;
35540;SDS011;21650;48.840;9.162;2023-06-26T01:28:12;11.53;;;7.73;;
35540;SDS011;21650;48.840;9.162;2023-06-26T01:30:41;11.10;;;8.07;;
35540;SDS011;21650;48.840;9.162;2023-06-26T01:33:09;10.07;;;7.93;;
35540;SDS011;21650;48.840;9.162;2023-06-26T01:35:36;11.80;;;8.10;;
35540;SDS011;21650;48.840;9.162;2023-06-26T01:40:56;14.00;;;8.70;;
35540;SDS011;21650;48.840;9.162;2023-06-26T01:46:09;12.90;;;9.07;;
35540;SDS011;21650;48.840;9.162;2023-06-26T01:48:47;15.80;;;7.73;;
35540;SDS011;21650;48.840;9.162;2023-06-26T01:51:20;16.47;;;8.10;;
35540;SDS011;21650;48.840;9.162;2023-06-26T01:53:50;11.93;;;7.90;;
35540;SDS011;21650;48.840;9.162;2023-06-26T01:56:18;12.20;;;8.40;;
35540;SDS011;21650;48.840;9.162;2023-06-26T01:58:47;12.13;;;8.27;;
35540;SDS011;21650;48.840;9.162;2023-06-26T02:01:14;11.40;;;8.47;;
35540;SDS011;21650;48.840;9.162;2023-06-26T02:03:40;14.93;;;7.93;;
35540;SDS011;21650;48.840;9.162;2023-06-26T02:06:05;10.53;;;7.90;;
35540;SDS011;21650;48.840;9.162;2023-06-26T02:08:31;10.40;;;8.17;;
35540;SDS011;21650;48.840;9.162;2023-06-26T02:10:56;13.23;;;8.70;;
35540;SDS011;21650;48.840;9.162;2023-06-26T02:13:22;11.60;;;8.23;;
35540;SDS011;21650;48.840;9.162;2023-06-26T02:15:47;12.00;;;8.20;;
35540;SDS011;21650;48.840;9.162;2023-06-26T02:18:13;11.60;;;7.83;;
35540;SDS011;21650;48.840;9.162;2023-06-26T02:20:39;14.47;;;8.40;;
35540;SDS011;21650;48.840;9.162;2023-06-26T02:23:04;10.83;;;7.87;;
35540;SDS011;21650;48.840;9.162;2023-06-26T02:25:30;11.37;;;7.77;;
35540;SDS011;21650;48.840;9.162;2023-06-26T02:27:56;10.43;;;8.03;;
35540;SDS011;21650;48.840;9.162;2023-06-26T02:30:21;12.57;;;7.87;;
35540;SDS011;21650;48.840;9.162;2023-06-26T02:32:47;12.40;;;8.53;;
35540;SDS011;21650;48.840;9.162;2023-06-26T02:35:13;12.90;;;7.73;;
35540;SDS011;21650;48.840;9.162;2023-06-26T02:37:38;12.23;;;8.63;;
35540;SDS011;21650;48.840;9.162;2023-06-26T02:40:04;11.43;;;8.43;;
35540;SDS011;21650;48.840;9.162;2023-06-26T02:42:31;12.00;;;7.83;;
35540;SDS011;21650;48.840;9.162;2023-06-26T02:44:56;11.17;;;8.23;;
35540;SDS011;21650;48.840;9.162;2023-06-26T02:47:22;10.73;;;8.00;;
35540;SDS011;21650;48.840;9.162;2023-06-26T02:49:47;12.37;;;8.03;;
35540;SDS011;21650;48.840;9.162;2023-06-26T02:52:13;12.30;;;8.47;;
35540;SDS011;21650;48.840;9.162;2023-06-26T02:54:39;10.50;;;7.37;;
35540;SDS011;21650;48.840;9.162;2023-06-26T02:57:04;12.13;;;8.30;;
35540;SDS011;21650;48.840;9.162;2023-06-26T02:59:30;10.03;;;7.23;;
35540;SDS011;21650;48.840;9.162;2023-06-26T03:01:55;9.27;;;7.40;;
35540;SDS011;21650;48.840;9.162;2023-06-26T03:04:21;9.50;;;7.30;;
35540;SDS011;21650;48.840;9.162;2023-06-26T03:06:47;12.67;;;8.03;;
35540;SDS011;21650;48.840;9.162;2023-06-26T03:09:12;10.70;;;8.17;;
35540;SDS011;21650;48.840;9.162;2023-06-26T03:11:38;11.83;;;8.43;;
35540;SDS011;21650;48.840;9.162;2023-06-26T03:14:04;11.73;;;7.20;;
35540;SDS011;21650;48.840;9.162;2023-06-26T03:16:29;9.53;;;7.07;;
35540;SDS011;21650;48.840;9.162;2023-06-26T03:18:55;10.83;;;7.30;;
35540;SDS011;21650;48.840;9.162;2023-06-26T03:21:20;11.50;;;8.63;;
35540;SDS011;21650;48.840;9.162;2023-06-26T03:23:46;11.10;;;7.30;;
35540;SDS011;21650;48.840;9.162;2023-06-26T03:26:11;10.67;;;7.63;;
35540;SDS011;21650;48.840;9.162;2023-06-26T03:28:39;11.13;;;7.50;;
35540;SDS011;21650;48.840;9.162;2023-06-26T03:31:05;13.13;;;8.27;;
35540;SDS011;21650;48.840;9.162;2023-06-26T03:33:30;10.97;;;7.83;;
35540;SDS011;21650;48.840;9.162;2023-06-26T03:35:56;14.83;;;8.77;;
35540;SDS011;21650;48.840;9.162;2023-06-26T03:38:22;10.50;;;8.43;;
35540;SDS011;21650;48.840;9.162;2023-06-26T03:40:49;12.67;;;8.17;;
35540;SDS011;21650;48.840;9.162;2023-06-26T03:43:14;12.60;;;8.27;;
35540;SDS011;21650;48.840;9.162;2023-06-26T03:45:40;12.43;;;7.80;;
35540;SDS011;21650;48.840;9.162;2023-06-26T03:48:05;12.93;;;8.40;;
35540;SDS011;21650;48.840;9.162;2023-06-26T03:50:33;13.63;;;8.13;;
35540;SDS011;21650;48.840;9.162;2023-06-26T03:52:58;11.00;;;8.47;;
35540;SDS011;21650;48.840;9.162;2023-06-26T03:55:24;11.40;;;7.97;;
35540;SDS011;21650;48.840;9.162;2023-06-26T03:57:50;12.07;;;8.37;;
35540;SDS011;21650;48.840;9.162;2023-06-26T04:00:15;11.23;;;8.63;;
35540;SDS011;21650;48.840;9.162;2023-06-26T04:02:41;11.10;;;8.27;;
35540;SDS011;21650;48.840;9.162;2023-06-26T04:05:07;10.73;;;8.33;;
35540;SDS011;21650;48.840;9.162;2023-06-26T04:07:33;12.50;;;8.83;;
35540;SDS011;21650;48.840;9.162;2023-06-26T04:09:59;13.77;;;8.20;;
35540;SDS011;21650;48.840;9.162;2023-06-26T04:12:25;12.23;;;8.50;;
35540;SDS011;21650;48.840;9.162;2023-06-26T04:14:51;14.20;;;8.73;;
35540;SDS011;21650;48.840;9.162;2023-06-26T04:17:16;10.63;;;7.70;;
35540;SDS011;21650;48.840;9.162;2023-06-26T04:19:42;11.10;;;7.93;;
35540;SDS011;21650;48.840;9.162;2023-06-26T04:22:07;11.07;;;8.63;;
35540;SDS011;21650;48.840;9.162;2023-06-26T04:24:33;10.77;;;7.10;;
35540;SDS011;21650;48.840;9.162;2023-06-26T04:26:58;11.87;;;7.97;;
35540;SDS011;21650;48.840;9.162;2023-06-26T04:29:27;12.47;;;8.60;;
35540;SDS011;21650;48.840;9.162;2023-06-26T04:31:53;13.47;;;8.17;;
35540;SDS011;21650;48.840;9.162;2023-06-26T04:34:26;9.33;;;7.60;;
35540;SDS011;21650;48.840;9.162;2023-06-26T04:36:52;10.40;;;7.60;;
35540;SDS011;21650;48.840;9.162;2023-06-26T04:39:18;12.30;;;8.37;;
35540;SDS011;21650;48.840;9.162;2023-06-26T04:41:44;9.57;;;7.43;;
35540;SDS011;21650;48.840;9.162;2023-06-26T04:44:10;11.33;;;7.43;;
35540;SDS011;21650;48.840;9.162;2023-06-26T04:46:37;14.37;;;8.17;;
35540;SDS011;21650;48.840;9.162;2023-06-26T04:49:06;10.90;;;7.73;;
35540;SDS011;21650;48.840;9.162;2023-06-26T04:51:35;10.40;;;7.83;;
35540;SDS011;21650;48.840;9.162;2023-06-26T04:54:07;11.83;;;7.97;;
35540;SDS011;21650;48.840;9.162;2023-06-26T04:56:33;10.37;;;7.37;;
35540;SDS011;21650;48.840;9.162;2023-06-26T04:59:00;13.30;;;7.10;;
35540;SDS011;21650;48.840;9.162;2023-06-26T05:01:25;15.13;;;8.67;;
35540;SDS011;21650;48.840;9.162;2023-06-26T05:03:54;10.50;;;7.13;;
35540;SDS011;21650;48.840;9.162;2023-06-26T05:06:23;11.37;;;8.00;;
35540;SDS011;21650;48.840;9.162;2023-06-26T05:08:48;13.03;;;8.60;;
35540;SDS011;21650;48.840;9.162;2023-06-26T05:11:14;10.83;;;8.03;;
35540;SDS011;21650;48.840;9.162;2023-06-26T05:13:40;11.17;;;8.33;;
35540;SDS011;21650;48.840;9.162;2023-06-26T05:16:05;9.97;;;7.73;;
35540;SDS011;21650;48.840;9.162;2023-06-26T05:18:33;12.80;;;7.47;;
35540;SDS011;21650;48.840;9.162;2023-06-26T05:20:59;11.40;;;7.47;;
35540;SDS011;21650;48.840;9.162;2023-06-26T05:23:25;12.07;;;7.67;;
35540;SDS011;21650;48.840;9.162;2023-06-26T05:25:52;9.00;;;6.97;;
35540;SDS011;21650;48.840;9.162;2023-06-26T05:28:18;9.80;;;7.40;;
35540;SDS011;21650;48.840;9.162;2023-06-26T05:30:43;11.63;;;7.87;;
35540;SDS011;21650;48.840;9.162;2023-06-26T05:33:10;11.20;;;7.70;;
35540;SDS011;21650;48.840;9.162;2023-06-26T05:35:37;10.67;;;8.10;;
35540;SDS011;21650;48.840;9.162;2023-06-26T05:38:04;13.33;;;7.53;;
35540;SDS011;21650;48.840;9.162;2023-06-26T05:40:30;10.57;;;7.47;;
35540;SDS011;21650;48.840;9.162;2023-06-26T05:42:56;12.00;;;7.53;;
35540;SDS011;21650;48.840;9.162;2023-06-26T05:45:21;13.50;;;8.70;;
35540;SDS011;21650;48.840;9.162;2023-06-26T05:47:47;10.43;;;8.40;;
35540;SDS011;21650;48.840;9.162;2023-06-26T05:50:15;12.60;;;8.60;;
35540;SDS011;21650;48.840;9.162;2023-06-26T05:52:42;14.37;;;8.13;;
35540;SDS011;21650;48.840;9.162;2023-06-26T05:55:09;11.80;;;8.47;;
35540;SDS011;21650;48.840;9.162;2023-06-26T05:57:35;11.70;;;7.80;;
35540;SDS011;21650;48.840;9.162;2023-06-26T06:00:02;10.57;;;7.80;;
35540;SDS011;21650;48.840;9.162;2023-06-26T06:02:31;13.73;;;7.00;;
35540;SDS011;21650;48.840;9.162;2023-06-26T06:04:57;11.93;;;7.33;;
35540;SDS011;21650;48.840;9.162;2023-06-26T06:07:22;13.40;;;8.30;;
35540;SDS011;21650;48.840;9.162;2023-06-26T06:09:48;12.80;;;8.13;;
35540;SDS011;21650;48.840;9.162;2023-06-26T06:12:13;11.27;;;7.40;;
35540;SDS011;21650;48.840;9.162;2023-06-26T06:14:39;14.30;;;8.87;;
35540;SDS011;21650;48.840;9.162;2023-06-26T06:17:05;9.25;;;6.80;;
35540;SDS011;21650;48.840;9.162;2023-06-26T06:19:30;9.93;;;7.70;;
35540;SDS011;21650;48.840;9.162;2023-06-26T06:21:56;11.48;;;7.90;;
35540;SDS011;21650;48.840;9.162;2023-06-26T06:24:21;12.10;;;7.80;;
35540;SDS011;21650;48.840;9.162;2023-06-26T06:26:47;9.10;;;7.10;;
35540;SDS011;21650;48.840;9.162;2023-06-26T06:29:12;10.47;;;7.50;;
35540;SDS011;21650;48.840;9.162;2023-06-26T06:31:38;10.48;;;7.38;;
35540;SDS011;21650;48.840;9.162;2023-06-26T06:34:03;12.32;;;7.18;;
35540;SDS011;21650;48.840;9.162;2023-06-26T06:36:29;11.43;;;7.22;;
35540;SDS011;21650;48.840;9.162;2023-06-26T06:38:55;13.52;;;8.02;;
35540;SDS011;21650;48.840;9.162;2023-06-26T06:41:20;10.03;;;7.30;;
35540;SDS011;21650;48.840;9.162;2023-06-26T06:43:46;11.77;;;7.67;;
35540;SDS011;21650;48.840;9.162;2023-06-26T06:46:11;11.68;;;7.82;;
35540;SDS011;21650;48.840;9.162;2023-06-26T06:48:37;9.20;;;7.22;;
35540;SDS011;21650;48.840;9.162;2023-06-26T06:51:03;11.13;;;7.23;;
35540;SDS011;21650;48.840;9.162;2023-06-26T06:53:29;8.97;;;7.13;;
35540;SDS011;21650;48.840;9.162;2023-06-26T06:55:56;9.20;;;6.65;;
35540;SDS011;21650;48.840;9.162;2023-06-26T06:58:22;9.80;;;7.50;;
35540;SDS011;21650;48.840;9.162;2023-06-26T07:00:48;13.38;;;8.50;;
35540;SDS011;21650;48.840;9.162;2023-06-26T07:03:14;13.43;;;7.15;;
35540;SDS011;21650;48.840;9.162;2023-06-26T07:05:41;10.82;;;7.47;;
35540;SDS011;21650;48.840;9.162;2023-06-26T07:08:07;11.00;;;7.80;;
35540;SDS011;21650;48.840;9.162;2023-06-26T07:10:33;10.57;;;7.43;;
35540;SDS011;21650;48.840;9.162;2023-06-26T07:12:58;12.73;;;7.40;;
35540;SDS011;21650;48.840;9.162;2023-06-26T07:15:24;12.57;;;7.63;;
35540;SDS011;21650;48.840;9.162;2023-06-26T07:17:50;12.10;;;6.55;;
35540;SDS011;21650;48.840;9.162;2023-06-26T07:20:15;7.72;;;6.65;;
35540;SDS011;21650;48.840;9.162;2023-06-26T07:22:41;10.15;;;7.60;;
35540;SDS011;21650;48.840;9.162;2023-06-26T07:25:08;10.93;;;7.47;;
35540;SDS011;21650;48.840;9.162;2023-06-26T07:27:34;10.15;;;6.97;;
35540;SDS011;21650;48.840;9.162;2023-06-26T07:30:00;11.27;;;7.55;;
35540;SDS011;21650;48.840;9.162;2023-06-26T07:32:26;12.30;;;6.85;;
35540;SDS011;21650;48.840;9.162;2023-06-26T07:34:52;8.85;;;6.75;;
35540;SDS011;21650;48.840;9.162;2023-06-26T07:37:17;9.63;;;6.72;;
35540;SDS011;21650;48.840;9.162;2023-06-26T07:39:43;8.75;;;6.35;;
35540;SDS011;21650;48.840;9.162;2023-06-26T07:42:08;10.98;;;6.60;;
35540;SDS011;21650;48.840;9.162;2023-06-26T07:44:34;7.90;;;6.10;;
35540;SDS011;21650;48.840;9.162;2023-06-26T07:47:00;10.80;;;6.60;;
35540;SDS011;21650;48.840;9.162;2023-06-26T07:49:25;9.55;;;6.55;;
35540;SDS011;21650;48.840;9.162;2023-06-26T07:51:51;12.00;;;6.60;;
35540;SDS011;21650;48.840;9.162;2023-06-26T07:54:16;11.13;;;7.18;;
35540;SDS011;21650;48.840;9.162;2023-06-26T07:59:25;8.15;;;5.47;;
35540;SDS011;21650;48.840;9.162;2023-06-26T08:01:54;8.63;;;5.68;;
35540;SDS011;21650;48.840;9.162;2023-06-26T08:04:21;6.15;;;5.25;;
35540;SDS011;21650;48.840;9.162;2023-06-26T08:06:49;7.13;;;5.10;;
35540;SDS011;21650;48.840;9.162;2023-06-26T08:09:16;8.13;;;5.38;;
35540;SDS011;21650;48.840;9.162;2023-06-26T08:11:43;5.90;;;5.03;;
35540;SDS011;21650;48.840;9.162;2023-06-26T08:14:09;6.30;;;4.82;;
35540;SDS011;21650;48.840;9.162;2023-06-26T08:16:37;6.63;;;5.68;;
35540;SDS011;21650;48.840;9.162;2023-06-26T08:19:06;6.05;;;5.07;;
35540;SDS011;21650;48.840;9.162;2023-06-26T08:21:32;8.38;;;5.22;;
35540;SDS011;21650;48.840;9.162;2023-06-26T08:23:58;7.82;;;5.63;;
35540;SDS011;21650;48.840;9.162;2023-06-26T08:26:23;9.30;;;4.88;;
35540;SDS011;21650;48.840;9.162;2023-06-26T08:28:49;10.77;;;5.65;;
35540;SDS011;21650;48.840;9.162;2023-06-26T08:31:15;10.52;;;5.70;;
35540;SDS011;21650;48.840;9.162;2023-06-26T08:33:41;7.68;;;5.57;;
35540;SDS011;21650;48.840;9.162;2023-06-26T08:36:07;8.10;;;5.38;;
35540;SDS011;21650;48.840;9.162;2023-06-26T08:38:32;8.80;;;5.35;;
35540;SDS011;21650;48.840;9.162;2023-06-26T08:40:58;13.55;;;5.35;;
35540;SDS011;21650;48.840;9.162;2023-06-26T08:43:24;7.25;;;5.03;;
35540;SDS011;21650;48.840;9.162;2023-06-26T08:45:51;6.97;;;5.57;;
35540;SDS011;21650;48.840;9.162;2023-06-26T08:48:17;8.18;;;4.82;;
35540;SDS011;21650;48.840;9.162;2023-06-26T08:50:43;6.35;;;5.25;;
35540;SDS011;21650;48.840;9.162;2023-06-26T08:56:02;7.15;;;5.47;;
35540;SDS011;21650;48.840;9.162;2023-06-26T08:58:28;6.97;;;4.97;;
35540;SDS011;21650;48.840;9.162;2023-06-26T09:00:54;5.88;;;4.82;;
35540;SDS011;21650;48.840;9.162;2023-06-26T09:03:21;6.35;;;4.57;;
35540;SDS011;21650;48.840;9.162;2023-06-26T09:05:48;5.88;;;4.45;;
35540;SDS011;21650;48.840;9.162;2023-06-26T09:08:13;5.47;;;4.65;;
35540;SDS011;21650;48.840;9.162;2023-06-26T09:10:39;4.82;;;4.30;;
35540;SDS011;21650;48.840;9.162;2023-06-26T09:13:05;6.65;;;4.80;;
35540;SDS011;21650;48.840;9.162;2023-06-26T09:15:43;5.85;;;4.75;;
35540;SDS011;21650;48.840;9.162;2023-06-26T09:18:09;7.22;;;4.53;;
35540;SDS011;21650;48.840;9.162;2023-06-26T09:20:35;4.70;;;4.25;;
35540;SDS011;21650;48.840;9.162;2023-06-26T09:23:01;5.05;;;4.55;;
35540;SDS011;21650;48.840;9.162;2023-06-26T09:25:28;5.70;;;4.35;;
35540;SDS011;21650;48.840;9.162;2023-06-26T09:27:54;4.80;;;3.83;;
35540;SDS011;21650;48.840;9.162;2023-06-26T09:30:21;6.68;;;4.05;;
35540;SDS011;21650;48.840;9.162;2023-06-26T09:32:47;6.40;;;4.32;;
35540;SDS011;21650;48.840;9.162;2023-06-26T09:35:13;5.15;;;4.65;;
35540;SDS011;21650;48.840;9.162;2023-06-26T09:37:39;5.88;;;4.75;;
35540;SDS011;21650;48.840;9.162;2023-06-26T09:40:05;4.78;;;4.25;;
35540;SDS011;21650;48.840;9.162;2023-06-26T09:42:32;5.00;;;4.20;;
35540;SDS011;21650;48.840;9.162;2023-06-26T09:44:57;7.10;;;5.18;;
35540;SDS011;21650;48.840;9.162;2023-06-26T09:47:23;8.10;;;4.50;;
35540;SDS011;21650;48.840;9.162;2023-06-26T09:49:49;4.63;;;4.22;;
35540;SDS011;21650;48.840;9.162;2023-06-26T09:52:15;5.82;;;5.10;;
35540;SDS011;21650;48.840;9.162;2023-06-26T09:54:45;5.20;;;4.72;;
35540;SDS011;21650;48.840;9.162;2023-06-26T09:57:12;7.15;;;5.55;;
35540;SDS011;21650;48.840;9.162;2023-06-26T09:59:38;7.75;;;5.25;;
35540;SDS011;21650;48.840;9.162;2023-06-26T10:02:07;6.03;;;4.95;;
35540;SDS011;21650;48.840;9.162;2023-06-26T10:04:33;8.55;;;4.82;;
35540;SDS011;21650;48.840;9.162;2023-06-26T10:07:01;7.68;;;5.15;;
35540;SDS011;21650;48.840;9.162;2023-06-26T10:09:29;6.45;;;5.13;;
35540;SDS011;21650;48.840;9.162;2023-06-26T10:11:57;8.13;;;4.85;;
35540;SDS011;21650;48.840;9.162;2023-06-26T10:14:27;5.93;;;5.10;;
35540;SDS011;21650;48.840;9.162;2023-06-26T10:16:59;6.15;;;5.55;;
35540;SDS011;21650;48.840;9.162;2023-06-26T10:19:28;9.57;;;5.38;;
35540;SDS011;21650;48.840;9.162;2023-06-26T10:21:56;7.55;;;5.97;;
35540;SDS011;21650;48.840;9.162;2023-06-26T10:24:25;7.28;;;5.45;;
35540;SDS011;21650;48.840;9.162;2023-06-26T10:26:57;7.63;;;5.47;;
35540;SDS011;21650;48.840;9.162;2023-06-26T10:29:27;6.45;;;5.22;;
35540;SDS011;21650;48.840;9.162;2023-06-26T10:31:54;9.25;;;5.43;;
35540;SDS011;21650;48.840;9.162;2023-06-26T10:34:23;7.55;;;5.82;;
35540;SDS011;21650;48.840;9.162;2023-06-26T10:36:58;7.05;;;5.88;;
35540;SDS011;21650;48.840;9.162;2023-06-26T10:39:24;5.85;;;5.28;;
35540;SDS011;21650;48.840;9.162;2023-06-26T10:41:50;6.38;;;5.53;;
35540;SDS011;21650;48.840;9.162;2023-06-26T10:44:19;7.28;;;5.82;;
35540;SDS011;21650;48.840;9.162;2023-06-26T10:46:52;7.00;;;5.78;;
35540;SDS011;21650;48.840;9.162;2023-06-26T10:49:20;6.82;;;5.47;;
35540;SDS011;21650;48.840;9.162;2023-06-26T10:51:47;8.18;;;5.80;;
35540;SDS011;21650;48.840;9.162;2023-06-26T10:54:16;7.00;;;5.32;;
35540;SDS011;21650;48.840;9.162;2023-06-26T10:56:44;8.15;;;5.32;;
35540;SDS011;21650;48.840;9.162;2023-06-26T11:01:44;7.18;;;6.47;;
35540;SDS011;21650;48.840;9.162;2023-06-26T11:04:12;6.50;;;5.70;;
35540;SDS011;21650;48.840;9.162;2023-06-26T11:06:40;9.75;;;6.15;;
35540;SDS011;21650;48.840;9.162;2023-06-26T11:09:14;6.32;;;5.72;;
35540;SDS011;21650;48.840;9.162;2023-06-26T11:14:17;6.05;;;5.45;;
35540;SDS011;21650;48.840;9.162;2023-06-26T11:16:43;6.38;;;5.47;;
35540;SDS011;21650;48.840;9.162;2023-06-26T11:19:09;9.07;;;6.15;;
35540;SDS011;21650;48.840;9.162;2023-06-26T11:21:37;6.15;;;5.55;;
35540;SDS011;21650;48.840;9.162;2023-06-26T11:24:03;7.85;;;5.78;;
35540;SDS011;21650;48.840;9.162;2023-06-26T11:26:32;6.60;;;5.85;;
35540;SDS011;21650;48.840;9.162;2023-06-26T11:29:04;8.48;;;5.70;;
35540;SDS011;21650;48.840;9.162;2023-06-26T11:31:30;6.15;;;4.68;;
35540;SDS011;21650;48.840;9.162;2023-06-26T11:33:58;8.23;;;6.07;;
35540;SDS011;21650;48.840;9.162;2023-06-26T11:36:28;8.05;;;5.70;;
35540;SDS011;21650;48.840;9.162;2023-06-26T11:41:25;7.60;;;5.93;;
35540;SDS011;21650;48.840;9.162;2023-06-26T11:43:55;9.23;;;5.97;;
35540;SDS011;21650;48.840;9.162;2023-06-26T11:46:21;7.72;;;5.47;;
35540;SDS011;21650;48.840;9.162;2023-06-26T11:48:48;6.25;;;5.35;;
35540;SDS011;21650;48.840;9.162;2023-06-26T11:51:14;9.93;;;4.93;;
35540;SDS011;21650;48.840;9.162;2023-06-26T11:53:41;6.30;;;5.18;;
35540;SDS011;21650;48.840;9.162;2023-06-26T11:56:08;8.32;;;5.40;;
35540;SDS011;21650;48.840;9.162;2023-06-26T11:58:34;7.28;;;5.10;;
35540;SDS011;21650;48.840;9.162;2023-06-26T12:01:00;7.05;;;5.80;;
35540;SDS011;21650;48.840;9.162;2023-06-26T12:03:25;6.85;;;5.55;;
35540;SDS011;21650;48.840;9.162;2023-06-26T12:05:51;8.27;;;5.78;;
35540;SDS011;21650;48.840;9.162;2023-06-26T12:08:17;6.15;;;5.15;;
35540;SDS011;21650;48.840;9.162;2023-06-26T12:10:43;6.10;;;5.47;;
35540;SDS011;21650;48.840;9.162;2023-06-26T12:13:10;7.15;;;5.75;;
35540;SDS011;21650;48.840;9.162;2023-06-26T12:15:36;9.35;;;5.95;;
35540;SDS011;21650;48.840;9.162;2023-06-26T12:18:07;6.80;;;5.90;;
35540;SDS011;21650;48.840;9.162;2023-06-26T12:20:33;6.22;;;5.47;;
35540;SDS011;21650;48.840;9.162;2023-06-26T12:23:11;6.80;;;5.38;;
35540;SDS011;21650;48.840;9.162;2023-06-26T12:25:37;7.72;;;5.57;;
35540;SDS011;21650;48.840;9.162;2023-06-26T12:28:03;5.80;;;5.22;;
35540;SDS011;21650;48.840;9.162;2023-06-26T12:30:28;7.40;;;5.22;;
35540;SDS011;21650;48.840;9.162;2023-06-26T12:32:54;8.20;;;6.05;;
35540;SDS011;21650;48.840;9.162;2023-06-26T12:35:20;5.90;;;5.10;;
35540;SDS011;21650;48.840;9.162;2023-06-26T12:37:46;7.45;;;5.70;;
35540;SDS011;21650;48.840;9.162;2023-06-26T12:40:16;9.35;;;5.75;;
35540;SDS011;21650;48.840;9.162;2023-06-26T12:42:47;6.32;;;5.20;;
35540;SDS011;21650;48.840;9.162;2023-06-26T12:45:12;5.82;;;5.20;;
35540;SDS011;21650;48.840;9.162;2023-06-26T12:47:39;6.45;;;5.60;;
35540;SDS011;21650;48.840;9.162;2023-06-26T12:50:06;7.63;;;5.72;;
35540;SDS011;21650;48.840;9.162;2023-06-26T12:52:32;7.50;;;5.03;;
35540;SDS011;21650;48.840;9.162;2023-06-26T12:54:58;6.95;;;5.13;;
35540;SDS011;21650;48.840;9.162;2023-06-26T12:57:23;6.32;;;5.25;;
35540;SDS011;21650;48.840;9.162;2023-06-26T12:59:49;5.93;;;5.05;;
35540;SDS011;21650;48.840;9.162;2023-06-26T13:02:15;8.15;;;5.43;;
35540;SDS011;21650;48.840;9.162;2023-06-26T13:04:40;6.82;;;5.35;;
35540;SDS011;21650;48.840;9.162;2023-06-26T13:07:07;5.53;;;4.93;;
35540;SDS011;21650;48.840;9.162;2023-06-26T13:09:33;6.43;;;5.28;;
35540;SDS011;21650;48.840;9.162;2023-06-26T13:12:00;7.35;;;5.40;;
35540;SDS011;21650;48.840;9.162;2023-06-26T13:14:26;7.35;;;4.75;;
35540;SDS011;21650;48.840;9.162;2023-06-26T13:16:52;6.97;;;4.53;;
35540;SDS011;21650;48.840;9.162;2023-06-26T13:19:17;9.45;;;5.03;;
35540;SDS011;21650;48.840;9.162;2023-06-26T13:21:43;8.23;;;5.18;;
35540;SDS011;21650;48.840;9.162;2023-06-26T13:24:09;7.50;;;4.90;;
35540;SDS011;21650;48.840;9.162;2023-06-26T13:26:35;5.47;;;4.38;;
35540;SDS011;21650;48.840;9.162;2023-06-26T13:29:00;8.65;;;4.57;;
35540;SDS011;21650;48.840;9.162;2023-06-26T13:31:26;6.13;;;5.28;;
35540;SDS011;21650;48.840;9.162;2023-06-26T13:33:52;7.68;;;4.60;;
35540;SDS011;21650;48.840;9.162;2023-06-26T13:36:18;6.32;;;4.53;;
35540;SDS011;21650;48.840;9.162;2023-06-26T13:38:44;4.20;;;3.80;;
35540;SDS011;21650;48.840;9.162;2023-06-26T13:41:10;4.88;;;4.07;;
35540;SDS011;21650;48.840;9.162;2023-06-26T13:43:36;5.07;;;4.22;;
35540;SDS011;21650;48.840;9.162;2023-06-26T13:46:02;8.05;;;4.45;;
35540;SDS011;21650;48.840;9.162;2023-06-26T13:48:28;5.10;;;3.97;;
35540;SDS011;21650;48.840;9.162;2023-06-26T13:50:54;5.88;;;4.15;;
35540;SDS011;21650;48.840;9.162;2023-06-26T13:53:21;6.05;;;4.40;;
35540;SDS011;21650;48.840;9.162;2023-06-26T13:55:47;6.32;;;4.15;;
35540;SDS011;21650;48.840;9.162;2023-06-26T13:58:13;11.57;;;4.57;;
35540;SDS011;21650;48.840;9.162;2023-06-26T14:00:39;5.10;;;3.90;;
35540;SDS011;21650;48.840;9.162;2023-06-26T14:03:06;4.40;;;4.00;;
35540;SDS011;21650;48.840;9.162;2023-06-26T14:05:33;4.95;;;3.30;;
35540;SDS011;21650;48.840;9.162;2023-06-26T14:07:59;5.78;;;3.60;;
35540;SDS011;21650;48.840;9.162;2023-06-26T14:10:27;4.63;;;4.03;;
35540;SDS011;21650;48.840;9.162;2023-06-26T14:12:52;6.15;;;3.67;;
35540;SDS011;21650;48.840;9.162;2023-06-26T14:15:18;7.45;;;3.03;;
35540;SDS011;21650;48.840;9.162;2023-06-26T14:17:43;5.00;;;3.30;;
35540;SDS011;21650;48.840;9.162;2023-06-26T14:20:09;5.07;;;3.20;;
35540;SDS011;21650;48.840;9.162;2023-06-26T14:22:38;4.07;;;2.88;;
35540;SDS011;21650;48.840;9.162;2023-06-26T14:25:04;2.90;;;2.50;;
35540;SDS011;21650;48.840;9.162;2023-06-26T14:27:31;4.65;;;2.80;;
35540;SDS011;21650;48.840;9.162;2023-06-26T14:29:56;4.25;;;2.83;;
35540;SDS011;21650;48.840;9.162;2023-06-26T14:32:22;3.85;;;3.10;;
35540;SDS011;21650;48.840;9.162;2023-06-26T14:34:47;5.43;;;2.58;;
35540;SDS011;21650;48.840;9.162;2023-06-26T14:37:13;4.55;;;2.60;;
35540;SDS011;21650;48.840;9.162;2023-06-26T14:39:38;4.47;;;3.30;;
35540;SDS011;21650;48.840;9.162;2023-06-26T14:42:04;4.15;;;2.67;;
35540;SDS011;21650;48.840;9.162;2023-06-26T14:44:30;5.43;;;3.10;;
35540;SDS011;21650;48.840;9.162;2023-06-26T14:46:56;4.35;;;2.70;;
35540;SDS011;21650;48.840;9.162;2023-06-26T14:49:21;5.00;;;3.10;;
35540;SDS011;21650;48.840;9.162;2023-06-26T14:51:47;5.15;;;3.30;;
35540;SDS011;21650;48.840;9.162;2023-06-26T14:54:12;4.25;;;2.80;;
35540;SDS011;21650;48.840;9.162;2023-06-26T14:56:38;3.78;;;3.03;;